Vaughan, Canada
Current Conditions -  °F | °C
As of 11:00 PM on Wednesday 22 Oct 2014 (Local Time) from CYYZ Reporting Station
Broken Clouds Broken Clouds  
Wind Chill: 41°   Ceiling: 5500
Heat Index: 46°   Visibility: 15mi
Dew Point: 41°   Wind: 13mph
Humidity: 81%   Direction: 10°N
Pressure: 30.24"   Gusts: NA
Location:  43.79°N, 79.54°W
Report Text: CYYZ 230300Z 01011KT 15SM FEW037 BKN055 08/05 A3024 RMK SC2SC4 SLP245
Loading
Personal Weather Stations






























Interactive Weather Map
Tropical Storm Tracking
New forecast layout! Learn more

10-Day Weather Forecast

Advertisements
Track Severe Weather on mobile